Time;durP1;ratioP1;P1;durP2;ratioP2;P2;SDS_P1;SDS_P2;PMS_P1;PMS_P2;Temp;Humidity;BMP_temperature;BMP_pressure;BME280_temperature;BME280_humidity;BME280_pressure;Samples;Min_cycle;Max_cycle;Signal;HPM_P1;HPM_P2
2023/01/21 00:00:28;;;;;;;44.13;32.08;;;102.90;2227.20;;;;;;5073617;28;20033;-86
2023/01/21 00:02:54;;;;;;;42.17;28.17;;;102.80;2227.20;;;;;;5073453;28;20028;-85
2023/01/21 00:05:20;;;;;;;55.30;36.58;;;102.80;2227.20;;;;;;5073454;28;20035;-88
2023/01/21 00:07:45;;;;;;;50.67;34.10;;;102.80;2227.20;;;;;;5073667;28;20029;-87
2023/01/21 00:10:11;;;;;;;37.28;27.20;;;103.00;2227.20;;;;;;5073144;28;20056;-86
2023/01/21 00:12:37;;;;;;;37.45;25.08;;;103.00;2227.20;;;;;;5073424;28;20024;-86
2023/01/21 00:15:03;;;;;;;35.05;23.38;;;103.10;2227.20;;;;;;5073446;28;20047;-82
2023/01/21 00:17:34;;;;;;;44.00;29.88;;;103.20;2227.20;;;;;;5074710;28;20469;-81
2023/01/21 00:20:00;;;;;;;49.13;32.28;;;103.10;2227.20;;;;;;5093334;28;20085;-87
2023/01/21 00:22:26;;;;;;;46.88;30.45;;;103.00;2227.20;;;;;;5093593;28;20028;-87
2023/01/21 00:24:51;;;;;;;51.40;32.65;;;102.80;2227.20;;;;;;5093575;28;20050;-85
2023/01/21 00:27:17;;;;;;;57.75;33.38;;;102.80;2227.20;;;;;;5094571;28;20024;-87
2023/01/21 00:29:43;;;;;;;74.28;42.08;;;102.80;2227.20;;;;;;5094650;28;20028;-86
2023/01/21 00:32:08;;;;;;;66.78;37.90;;;102.90;2227.20;;;;;;5093521;28;20127;-86
2023/01/21 00:34:34;;;;;;;35.47;22.77;;;103.00;2227.20;;;;;;5093045;28;20492;-88
2023/01/21 00:37:00;;;;;;;34.92;22.98;;;103.10;2227.20;;;;;;5093655;28;20031;-86
2023/01/21 00:39:25;;;;;;;33.90;21.85;;;103.00;2227.20;;;;;;5093160;28;20077;-85
2023/01/21 00:41:51;;;;;;;47.72;30.05;;;103.00;2227.20;;;;;;5093157;28;20493;-87
2023/01/21 00:44:18;;;;;;;30.63;22.27;;;102.90;2227.20;;;;;;5093438;28;20027;-85
2023/01/21 00:46:43;;;;;;;31.63;22.40;;;102.90;2227.20;;;;;;5093189;28;20055;-86
2023/01/21 00:49:09;;;;;;;30.67;21.70;;;103.00;2227.20;;;;;;5092916;28;20060;-86
2023/01/21 00:51:35;;;;;;;32.17;20.95;;;103.10;2227.20;;;;;;5092855;28;20116;-88
2023/01/21 00:54:01;;;;;;;29.60;20.75;;;103.10;2227.20;;;;;;5093029;28;20453;-87
2023/01/21 00:56:27;;;;;;;35.95;23.80;;;103.20;2227.20;;;;;;5092744;28;20031;-85
2023/01/21 00:58:52;;;;;;;32.10;23.02;;;103.30;2227.20;;;;;;5093133;28;20366;-88
2023/01/21 01:01:20;;;;;;;53.05;30.92;;;103.30;2227.20;;;;;;5092789;28;20032;-87
2023/01/21 01:03:47;;;;;;;49.55;30.52;;;103.20;2227.20;;;;;;5094235;28;20024;-87
2023/01/21 01:06:19;;;;;;;48.40;28.88;;;103.30;2227.20;;;;;;5093126;28;20028;-88
2023/01/21 01:08:45;;;;;;;37.50;25.70;;;103.20;2227.20;;;;;;5076076;28;20051;-86
2023/01/21 01:11:12;;;;;;;42.80;27.80;;;103.20;2227.20;;;;;;5072266;28;20453;-86
2023/01/21 01:13:38;;;;;;;48.97;30.42;;;103.20;2227.20;;;;;;5073618;28;20024;-88
2023/01/21 01:16:04;;;;;;;60.63;35.38;;;103.10;2227.20;;;;;;5072501;28;20027;-87
2023/01/21 01:18:32;;;;;;;79.70;45.15;;;103.00;2227.20;;;;;;5072759;28;20029;-87
2023/01/21 01:20:59;;;;;;;38.83;25.73;;;103.00;2227.20;;;;;;5072611;28;20036;-88
2023/01/21 01:23:25;;;;;;;93.43;49.95;;;103.00;2227.20;;;;;;5072258;28;20158;-85
2023/01/21 01:26:03;;;;;;;101.55;54.45;;;102.90;2227.20;;;;;;5072667;28;20025;-85
2023/01/21 01:28:30;;;;;;;75.82;41.63;;;102.90;2227.20;;;;;;5072280;28;20465;-85
2023/01/21 01:30:56;;;;;;;52.70;31.60;;;102.90;2227.20;;;;;;5071882;28;20032;-87
2023/01/21 01:33:23;;;;;;;54.47;33.05;;;103.00;2227.20;;;;;;5074010;28;20032;-89
2023/01/21 01:35:49;;;;;;;50.25;30.75;;;102.80;2227.20;;;;;;5072462;28;20029;-86
2023/01/21 01:38:18;;;;;;;73.50;44.42;;;103.00;2227.20;;;;;;5072501;28;20056;-87
2023/01/21 01:40:45;;;;;;;49.03;31.60;;;103.00;2227.20;;;;;;5072446;28;20028;-86
2023/01/21 01:43:21;;;;;;;57.10;37.75;;;102.90;2227.20;;;;;;5072190;28;20032;-85
2023/01/21 01:45:47;;;;;;;34.17;24.05;;;103.00;2227.20;;;;;;5072528;28;20174;-88
2023/01/21 01:48:21;;;;;;;32.25;22.70;;;103.10;2227.20;;;;;;5072793;28;20047;-86
2023/01/21 01:50:48;;;;;;;37.40;25.27;;;103.20;2227.20;;;;;;5072372;28;20024;-87
2023/01/21 01:53:16;;;;;;;39.83;25.67;;;103.20;2227.20;;;;;;5072106;28;20032;-87
2023/01/21 01:55:43;;;;;;;89.82;44.90;;;103.30;2227.20;;;;;;5072499;28;20025;-84
2023/01/21 01:58:12;;;;;;;64.45;36.60;;;103.20;2227.20;;;;;;5072237;28;20529;-86
2023/01/21 02:00:38;;;;;;;51.85;33.22;;;103.10;2227.20;;;;;;5072284;28;20036;-87
2023/01/21 02:05:49;;;;;;;40.38;27.60;;;103.20;2227.20;;;;;;5073520;28;20055;-85
2023/01/21 02:08:16;;;;;;;49.35;30.85;;;103.20;2227.20;;;;;;5074642;28;20028;-85
2023/01/21 02:10:41;;;;;;;57.72;37.25;;;103.10;2227.20;;;;;;5075766;28;20044;-86
2023/01/21 02:13:08;;;;;;;76.80;47.00;;;102.90;2227.20;;;;;;5075639;28;20078;-86
2023/01/21 02:15:49;;;;;;;66.63;42.03;;;102.90;2227.20;;;;;;5075864;28;20497;-88
2023/01/21 02:18:30;;;;;;;67.50;40.17;;;103.00;2227.20;;;;;;5075636;28;20028;-87
2023/01/21 02:21:03;;;;;;;52.88;35.42;;;103.10;2227.20;;;;;;5076060;28;20040;-86
2023/01/21 02:23:59;;;;;;;51.30;32.38;;;103.00;2227.20;;;;;;5077441;28;20042;-88
2023/01/21 02:26:34;;;;;;;39.88;26.42;;;103.00;2227.20;;;;;;5075655;28;20082;-84
2023/01/21 02:29:09;;;;;;;37.50;24.70;;;103.00;2227.20;;;;;;5075604;28;20031;-86
2023/01/21 02:32:02;;;;;;;32.47;21.00;;;103.00;2227.20;;;;;;5075557;28;20039;-85
2023/01/21 02:34:46;;;;;;;29.15;19.80;;;102.90;2227.20;;;;;;5075415;28;20020;-86
2023/01/21 02:37:16;;;;;;;27.95;18.98;;;102.80;2227.20;;;;;;5075694;28;20044;-85
2023/01/21 02:39:48;;;;;;;33.45;21.20;;;102.80;2227.20;;;;;;5075260;28;20035;-85
2023/01/21 02:42:38;;;;;;;25.80;18.00;;;102.80;2227.20;;;;;;5075524;28;20032;-84
2023/01/21 02:45:28;;;;;;;24.75;14.48;;;102.80;2227.20;;;;;;5075299;28;20115;-86
2023/01/21 02:48:09;;;;;;;20.60;13.98;;;102.90;2227.20;;;;;;5075409;28;20512;-86
2023/01/21 02:50:40;;;;;;;20.25;13.00;;;102.80;2227.20;;;;;;5075413;28;20028;-86
2023/01/21 02:53:06;;;;;;;20.38;13.75;;;102.80;2227.20;;;;;;5075071;28;20028;-86
2023/01/21 02:55:35;;;;;;;19.20;13.75;;;102.80;2227.20;;;;;;5075373;28;20029;-86
2023/01/21 02:58:11;;;;;;;20.73;14.57;;;102.80;2227.20;;;;;;5075071;28;20021;-88
2023/01/21 03:01:00;;;;;;;18.23;12.52;;;102.80;2227.20;;;;;;5075004;28;20021;-87
2023/01/21 03:03:48;;;;;;;20.05;13.15;;;102.80;2227.20;;;;;;5075030;28;20037;-86
2023/01/21 03:06:33;;;;;;;19.73;13.38;;;102.90;2227.20;;;;;;5075270;28;20021;-85
2023/01/21 03:09:06;;;;;;;20.23;14.75;;;102.80;2227.20;;;;;;5074894;28;20028;-88
2023/01/21 03:11:32;;;;;;;18.27;12.90;;;102.80;2227.20;;;;;;5076063;28;20049;-86
2023/01/21 03:17:16;;;;;;;35.63;21.48;;;102.80;2227.20;;;;;;5075658;28;20028;-89
2023/01/21 03:19:55;;;;;;;22.38;16.13;;;102.90;2227.20;;;;;;5074565;28;20085;-89
2023/01/21 03:22:26;;;;;;;20.58;14.10;;;102.90;2227.20;;;;;;5074240;28;20119;-87
2023/01/21 03:24:54;;;;;;;16.95;13.02;;;102.90;2227.20;;;;;;5075716;28;20035;-86
2023/01/21 03:27:22;;;;;;;16.42;11.85;;;102.90;2227.20;;;;;;5074466;28;20025;-87
2023/01/21 03:29:55;;;;;;;19.70;13.52;;;102.80;2227.20;;;;;;5074412;28;20036;-87
2023/01/21 03:32:22;;;;;;;;;;;102.80;2227.20;;;;;;5074978;28;20029;-85
2023/01/21 03:34:52;;;;;;;34.85;21.95;;;102.90;2227.20;;;;;;5074459;28;19912;-85
2023/01/21 03:38:02;;;;;;;43.40;27.35;;;102.80;2227.20;;;;;;5074367;28;20461;-86
2023/01/21 03:40:33;;;;;;;53.38;34.13;;;102.70;2227.20;;;;;;5040906;28;20102;-86
2023/01/21 03:43:00;;;;;;;45.30;31.38;;;102.70;2227.20;;;;;;5073971;28;20054;-86
2023/01/21 03:45:43;;;;;;;47.65;30.65;;;102.70;2227.20;;;;;;5073762;28;20031;-85
2023/01/21 03:48:25;;;;;;;46.30;29.98;;;102.80;2227.20;;;;;;5074065;28;20024;-85
2023/01/21 03:50:58;;;;;;;38.42;23.02;;;102.70;2227.20;;;;;;5068595;28;20028;-85
2023/01/21 03:53:24;;;;;;;43.38;22.48;;;102.80;2227.20;;;;;;5065963;28;20025;-86
2023/01/21 03:55:50;;;;;;;28.23;17.00;;;103.20;2227.20;;;;;;5073864;28;20020;-85
2023/01/21 03:58:16;;;;;;;28.88;16.65;;;102.90;2227.20;;;;;;5073227;28;20036;-86
2023/01/21 04:00:42;;;;;;;31.02;18.40;;;102.80;2227.20;;;;;;5073887;28;20025;-85
2023/01/21 04:03:08;;;;;;;28.75;20.02;;;102.80;2227.20;;;;;;5075016;28;20028;-85
2023/01/21 04:05:34;;;;;;;32.90;20.90;;;102.80;2227.20;;;;;;5073418;28;20044;-86
2023/01/21 04:08:01;;;;;;;37.92;21.98;;;102.80;2227.20;;;;;;5073006;28;20039;-86
2023/01/21 04:10:26;;;;;;;31.60;21.90;;;102.80;2227.20;;;;;;5073196;28;20082;-86
2023/01/21 04:12:52;;;;;;;29.48;19.85;;;102.70;2227.20;;;;;;5073067;28;20021;-87
2023/01/21 04:15:18;;;;;;;30.33;21.08;;;102.80;2227.20;;;;;;5074776;28;20442;-88
2023/01/21 04:17:44;;;;;;;30.85;21.45;;;102.80;2227.20;;;;;;5074524;28;20020;-85
2023/01/21 04:20:10;;;;;;;31.92;23.13;;;102.80;2227.20;;;;;;5073684;28;20028;-86
2023/01/21 04:22:36;;;;;;;33.78;22.73;;;102.90;2227.20;;;;;;5074955;28;20029;-87
2023/01/21 04:25:04;;;;;;;37.85;25.13;;;102.90;2227.20;;;;;;5073458;28;20031;-87
2023/01/21 04:27:30;;;;;;;33.42;22.92;;;102.70;2227.20;;;;;;5073471;28;20056;-87
2023/01/21 04:29:55;;;;;;;27.02;20.83;;;102.70;2227.20;;;;;;5074348;28;20412;-87
2023/01/21 04:32:21;;;;;;;34.30;22.92;;;102.70;2227.20;;;;;;5074520;28;20078;-85
2023/01/21 04:34:47;;;;;;;31.10;21.70;;;102.70;2227.20;;;;;;5074268;28;20025;-85
2023/01/21 04:37:13;;;;;;;32.58;21.90;;;102.70;2227.20;;;;;;5073183;28;20021;-86
2023/01/21 04:39:38;;;;;;;40.17;26.20;;;102.70;2227.20;;;;;;5072904;28;20024;-85
2023/01/21 04:42:04;;;;;;;37.83;25.63;;;102.80;2227.20;;;;;;5073253;28;20036;-86
2023/01/21 04:44:30;;;;;;;44.65;27.13;;;102.70;2227.20;;;;;;5073181;28;20029;-86
2023/01/21 04:46:56;;;;;;;38.33;24.02;;;102.60;2227.20;;;;;;5074421;28;20096;-85
2023/01/21 04:49:21;;;;;;;37.13;23.98;;;102.60;2227.20;;;;;;5073259;28;20355;-86
2023/01/21 04:51:47;;;;;;;45.22;28.52;;;102.50;2227.20;;;;;;5073300;28;20031;-85
2023/01/21 04:54:13;;;;;;;43.65;27.88;;;102.60;2227.20;;;;;;5094960;28;20088;-82
2023/01/21 04:56:38;;;;;;;39.47;26.40;;;102.50;2227.20;;;;;;5098195;28;20055;-87
2023/01/21 04:59:04;;;;;;;43.85;28.27;;;102.50;2227.20;;;;;;5092141;28;20035;-87
2023/01/21 05:01:30;;;;;;;39.75;27.30;;;102.60;2227.20;;;;;;5074702;28;20051;-86
2023/01/21 05:03:56;;;;;;;33.35;23.30;;;102.50;2227.20;;;;;;5076242;28;20086;-86
2023/01/21 05:06:21;;;;;;;32.13;21.08;;;102.50;2227.20;;;;;;5077790;28;20092;-86
2023/01/21 05:08:47;;;;;;;31.75;22.10;;;102.50;2227.20;;;;;;5077610;28;20078;-86
2023/01/21 05:11:16;;;;;;;35.67;22.90;;;102.50;2227.20;;;;;;5074809;28;20056;-86
2023/01/21 05:13:42;;;;;;;36.85;24.98;;;102.50;2227.20;;;;;;5072962;28;20381;-86
2023/01/21 05:16:08;;;;;;;36.92;24.65;;;102.50;2227.20;;;;;;5072872;28;20024;-85
2023/01/21 05:18:38;;;;;;;43.40;27.73;;;102.50;2227.20;;;;;;5073030;28;20115;-86
2023/01/21 05:21:04;;;;;;;33.10;20.90;;;102.50;2227.20;;;;;;5073132;28;20494;-85
2023/01/21 05:23:30;;;;;;;35.60;24.45;;;102.50;2227.20;;;;;;5073232;28;20109;-86
2023/01/21 05:25:56;;;;;;;33.80;21.75;;;102.50;2227.20;;;;;;5072799;28;20059;-86
2023/01/21 05:28:21;;;;;;;31.67;21.55;;;102.50;2227.20;;;;;;5072732;28;20090;-85
2023/01/21 05:30:47;;;;;;;43.08;26.40;;;102.50;2227.20;;;;;;5072602;28;20040;-86
2023/01/21 05:33:13;;;;;;;43.70;27.88;;;102.60;2227.20;;;;;;5072820;28;20027;-86
2023/01/21 05:35:39;;;;;;;39.63;24.85;;;102.60;2227.20;;;;;;5072717;28;20025;-85
2023/01/21 05:38:05;;;;;;;43.97;29.00;;;102.50;2227.20;;;;;;5072756;28;20058;-85
2023/01/21 05:40:31;;;;;;;38.58;26.33;;;102.60;2227.20;;;;;;5072675;28;20087;-89
2023/01/21 05:42:57;;;;;;;32.25;23.15;;;102.50;2227.20;;;;;;5074628;28;20037;-87
2023/01/21 05:45:23;;;;;;;31.23;20.85;;;102.50;2227.20;;;;;;5076566;28;20024;-87
2023/01/21 05:47:49;;;;;;;30.92;21.27;;;102.50;2227.20;;;;;;5077705;28;20486;-85
2023/01/21 05:50:14;;;;;;;34.20;21.67;;;102.40;2227.20;;;;;;5076353;28;20028;-85
2023/01/21 05:52:40;;;;;;;36.80;23.25;;;102.40;2227.20;;;;;;5075297;28;20119;-88
2023/01/21 05:55:06;;;;;;;33.78;21.92;;;102.40;2227.20;;;;;;5075894;28;20025;-85
2023/01/21 05:57:33;;;;;;;37.63;24.85;;;102.50;2227.20;;;;;;5075607;28;20059;-85
2023/01/21 05:59:58;;;;;;;49.35;30.10;;;102.50;2227.20;;;;;;5077167;28;20040;-85
2023/01/21 06:02:24;;;;;;;40.13;24.42;;;102.50;2227.20;;;;;;5076130;28;20377;-85
2023/01/21 06:04:50;;;;;;;40.20;25.70;;;102.50;2227.20;;;;;;5076086;28;20035;-85
2023/01/21 06:07:16;;;;;;;32.75;22.67;;;102.60;2227.20;;;;;;5076418;28;20504;-86
2023/01/21 06:09:42;;;;;;;34.72;22.63;;;102.60;2227.20;;;;;;5075664;28;20056;-85
2023/01/21 06:12:07;;;;;;;33.45;22.55;;;102.50;2227.20;;;;;;5076560;28;20024;-86
2023/01/21 06:14:33;;;;;;;33.63;22.95;;;102.60;2227.20;;;;;;5076206;28;20048;-84
2023/01/21 06:16:59;;;;;;;40.25;27.88;;;102.50;2227.20;;;;;;5075802;28;20060;-85
2023/01/21 06:19:24;;;;;;;61.75;41.47;;;102.60;2227.20;;;;;;5075713;28;20031;-87
2023/01/21 06:21:51;;;;;;;41.45;28.23;;;102.50;2227.20;;;;;;5077015;28;20036;-85
2023/01/21 06:24:17;;;;;;;48.95;32.58;;;102.60;2227.20;;;;;;5075735;28;20029;-87
2023/01/21 06:26:42;;;;;;;33.25;23.90;;;102.60;2227.20;;;;;;5075866;28;20032;-86
2023/01/21 06:29:08;;;;;;;39.10;26.85;;;102.70;2227.20;;;;;;5075574;28;20528;-88
2023/01/21 06:31:34;;;;;;;35.30;24.52;;;102.60;2227.20;;;;;;5075450;28;20073;-87
2023/01/21 06:34:00;;;;;;;38.83;27.02;;;102.70;2227.20;;;;;;5076772;28;20035;-87
2023/01/21 06:36:25;;;;;;;43.03;25.92;;;102.70;2227.20;;;;;;5075446;28;20119;-85
2023/01/21 06:38:51;;;;;;;39.83;25.08;;;102.70;2227.20;;;;;;5075474;28;20029;-86
2023/01/21 06:41:17;;;;;;;56.60;33.80;;;102.70;2227.20;;;;;;5075336;28;20033;-87
2023/01/21 06:43:43;;;;;;;48.80;27.73;;;102.70;2227.20;;;;;;5075255;28;20031;-85
2023/01/21 06:46:09;;;;;;;47.60;28.48;;;102.50;2227.20;;;;;;5075155;28;20024;-85
2023/01/21 06:48:35;;;;;;;45.03;30.20;;;102.40;2227.20;;;;;;5075332;28;20074;-85
2023/01/21 06:51:01;;;;;;;48.88;30.67;;;102.50;2227.20;;;;;;5075359;28;20032;-84
2023/01/21 06:53:27;;;;;;;51.40;31.08;;;77.70;2227.20;;;;;;5074698;28;20028;-87
2023/01/21 06:55:53;;;;;;;46.58;30.83;;;102.50;2227.20;;;;;;5075125;28;20382;-85
2023/01/21 06:58:18;;;;;;;57.15;34.55;;;102.60;2227.20;;;;;;5075105;28;20075;-86
2023/01/21 07:00:44;;;;;;;52.10;32.97;;;102.70;2227.20;;;;;;5075208;28;20465;-85
2023/01/21 07:03:10;;;;;;;61.83;37.00;;;102.70;2227.20;;;;;;5075113;28;20040;-86
2023/01/21 07:05:36;;;;;;;56.92;33.90;;;102.70;2227.20;;;;;;5074805;28;20047;-85
2023/01/21 07:08:02;;;;;;;58.60;35.97;;;102.70;2227.20;;;;;;5076240;28;20029;-88
2023/01/21 07:10:27;;;;;;;64.05;41.03;;;102.80;2227.20;;;;;;5075774;28;20056;-85
2023/01/21 07:12:53;;;;;;;66.75;43.47;;;102.80;2227.20;;;;;;5074640;28;20021;-85
2023/01/21 07:15:19;;;;;;;67.20;43.38;;;102.80;2227.20;;;;;;5074820;28;20039;-84
2023/01/21 07:17:45;;;;;;;64.32;42.40;;;102.80;2227.20;;;;;;5074666;28;20257;-84
2023/01/21 07:20:13;;;;;;;50.53;33.60;;;102.70;2227.20;;;;;;5074505;28;20036;-86
2023/01/21 07:22:39;;;;;;;58.90;39.35;;;102.60;2227.20;;;;;;5075827;28;20115;-85
2023/01/21 07:25:05;;;;;;;45.20;31.05;;;102.70;2227.20;;;;;;5074647;28;20071;-84
2023/01/21 07:27:31;;;;;;;43.80;33.55;;;102.60;2227.20;;;;;;5074246;28;20038;-86
2023/01/21 07:29:57;;;;;;;44.65;33.00;;;102.50;2227.20;;;;;;5075908;28;20024;-85
2023/01/21 07:32:22;;;;;;;59.47;41.70;;;102.50;2227.20;;;;;;5074141;28;20036;-85
2023/01/21 07:34:48;;;;;;;61.28;41.55;;;102.60;2227.20;;;;;;5074435;28;20029;-86
2023/01/21 07:37:14;;;;;;;56.80;34.28;;;102.60;2227.20;;;;;;5074307;28;20093;-86
2023/01/21 07:39:39;;;;;;;45.75;31.17;;;102.60;2227.20;;;;;;5074378;28;20029;-86
2023/01/21 07:42:05;;;;;;;45.63;28.02;;;102.60;2227.20;;;;;;5075515;28;20465;-86
2023/01/21 07:44:31;;;;;;;48.17;28.05;;;102.70;2227.20;;;;;;5074282;28;20059;-85
2023/01/21 07:46:57;;;;;;;50.78;37.00;;;102.60;2227.20;;;;;;5074159;28;20028;-83
2023/01/21 07:49:22;;;;;;;47.00;33.13;;;102.70;2227.20;;;;;;5074222;28;20449;-85
2023/01/21 07:51:48;;;;;;;42.72;31.70;;;102.60;2227.20;;;;;;5075521;28;20024;-83
2023/01/21 07:54:14;;;;;;;42.78;29.33;;;102.60;2227.20;;;;;;5073086;28;20347;-87
2023/01/21 07:56:40;;;;;;;60.92;38.67;;;102.60;2227.20;;;;;;5073774;28;20115;-84
2023/01/21 07:59:06;;;;;;;351.20;195.10;;;102.60;2227.20;;;;;;5073520;28;20405;-84
2023/01/21 08:01:32;;;;;;;300.67;159.60;;;102.70;2227.20;;;;;;5073309;28;20532;-86
2023/01/21 08:03:58;;;;;;;166.52;99.43;;;102.70;2227.20;;;;;;5074523;28;20107;-87
2023/01/21 08:06:24;;;;;;;99.47;62.20;;;102.70;2227.20;;;;;;5073897;28;20056;-86
2023/01/21 08:08:50;;;;;;;80.47;51.25;;;102.80;2227.20;;;;;;5074539;28;20462;-82
2023/01/21 08:11:16;;;;;;;59.35;40.00;;;102.80;2227.20;;;;;;5074530;28;20064;-87
2023/01/21 08:13:43;;;;;;;96.10;61.55;;;102.70;2227.20;;;;;;5073440;28;20461;-86
2023/01/21 08:16:10;;;;;;;56.63;41.10;;;102.70;2227.20;;;;;;5073414;28;20024;-86
2023/01/21 08:18:36;;;;;;;59.17;39.80;;;102.70;2227.20;;;;;;5073470;28;20048;-87
2023/01/21 08:21:02;;;;;;;74.00;54.70;;;102.80;2227.20;;;;;;5073488;28;20489;-86
2023/01/21 08:23:28;;;;;;;63.95;42.47;;;102.90;2227.20;;;;;;5073447;28;20033;-86
2023/01/21 08:25:54;;;;;;;64.63;43.65;;;102.80;2227.20;;;;;;5073525;28;20415;-87
2023/01/21 08:28:21;;;;;;;66.82;46.78;;;102.90;2227.20;;;;;;5073222;28;20032;-86
2023/01/21 08:30:47;;;;;;;96.40;64.78;;;103.00;2227.20;;;;;;5073180;28;20032;-86
2023/01/21 08:33:13;;;;;;;103.30;71.07;;;103.10;2227.20;;;;;;5073309;28;20089;-87
2023/01/21 08:35:38;;;;;;;95.40;64.75;;;103.20;2227.20;;;;;;5073121;28;20063;-87
2023/01/21 08:38:04;;;;;;;79.80;54.30;;;103.10;2227.20;;;;;;5072822;28;20029;-86
2023/01/21 08:40:30;;;;;;;73.88;48.03;;;103.30;2227.20;;;;;;5072957;28;20033;-86
2023/01/21 08:42:59;;;;;;;60.55;42.97;;;103.20;2227.20;;;;;;5074245;28;20028;-83
2023/01/21 08:45:26;;;;;;;56.47;39.40;;;103.10;2227.20;;;;;;5072586;28;20470;-80
2023/01/21 08:47:51;;;;;;;63.85;42.75;;;103.00;2227.20;;;;;;5072653;28;20020;-84
2023/01/21 08:50:18;;;;;;;68.93;46.65;;;103.10;2227.20;;;;;;5072973;28;20032;-83
2023/01/21 08:52:50;;;;;;;49.25;34.97;;;103.20;2227.20;;;;;;5072410;28;20165;-86
2023/01/21 08:55:16;;;;;;;51.00;33.95;;;103.20;2227.20;;;;;;5074483;28;20074;-87
2023/01/21 08:57:42;;;;;;;55.08;37.75;;;103.30;2227.20;;;;;;5072350;28;20119;-88
2023/01/21 09:00:08;;;;;;;51.20;35.50;;;128.00;2252.80;;;;;;5072716;28;20025;-85
2023/01/21 09:02:34;;;;;;;51.22;36.17;;;128.00;2252.80;;;;;;5072780;28;20434;-87
2023/01/21 09:05:00;;;;;;;106.20;68.45;;;128.10;2252.80;;;;;;5073594;28;20060;-86
2023/01/21 09:07:25;;;;;;;85.75;60.83;;;128.20;2252.80;;;;;;5072834;28;20028;-86
2023/01/21 09:09:51;;;;;;;63.53;46.28;;;128.20;2252.80;;;;;;5072369;28;20052;-86
2023/01/21 09:12:17;;;;;;;59.90;41.38;;;128.20;2252.80;;;;;;5072557;28;20409;-86
2023/01/21 09:14:42;;;;;;;54.90;39.65;;;128.30;2252.80;;;;;;5072382;28;20029;-86
2023/01/21 09:17:09;;;;;;;55.30;36.63;;;128.40;2252.80;;;;;;5076191;28;20028;-86
2023/01/21 09:19:35;;;;;;;101.65;51.13;;;128.50;2252.80;;;;;;5076550;28;20025;-84
2023/01/21 09:22:00;;;;;;;64.90;41.60;;;128.40;2252.80;;;;;;5076647;28;20487;-83
2023/01/21 09:24:26;;;;;;;59.75;40.80;;;128.50;2252.80;;;;;;5076399;28;20025;-85
2023/01/21 09:26:52;;;;;;;56.30;38.10;;;128.50;2252.80;;;;;;5076108;28;20059;-83
2023/01/21 09:29:18;;;;;;;54.65;38.72;;;128.50;2252.80;;;;;;5076392;28;20493;-85
2023/01/21 09:31:43;;;;;;;57.75;36.45;;;128.60;2252.80;;;;;;5076847;28;20058;-85
2023/01/21 09:34:10;;;;;;;60.42;37.08;;;128.50;2252.80;;;;;;5076407;28;20426;-85
2023/01/21 09:36:37;;;;;;;66.00;39.65;;;128.60;2252.80;;;;;;5076532;28;20109;-85
2023/01/21 09:39:03;;;;;;;64.85;44.60;;;128.70;2252.80;;;;;;5076303;28;20054;-84
2023/01/21 09:41:38;;;;;;;63.55;41.28;;;128.80;2252.80;;;;;;5076851;28;20505;-84
2023/01/21 09:44:31;;;;;;;55.78;36.42;;;128.80;2252.80;;;;;;5077760;28;20032;-89
2023/01/21 09:47:37;;;;;;;58.05;38.95;;;128.80;2252.80;;;;;;5076354;28;20050;-85
2023/01/21 09:50:15;;;;;;;56.08;36.88;;;153.60;2252.80;;;;;;5075632;28;20041;-86
2023/01/21 09:52:47;;;;;;;61.60;40.70;;;153.60;2252.80;;;;;;5063325;28;20493;-88
2023/01/21 09:55:16;;;;;;;55.72;35.95;;;153.60;2252.80;;;;;;5076029;28;20350;-86
2023/01/21 09:58:03;;;;;;;63.30;40.72;;;153.80;2252.80;;;;;;5075605;28;20025;-86
2023/01/21 10:00:40;;;;;;;60.53;40.75;;;153.70;2252.80;;;;;;5075873;28;20033;-89
2023/01/21 10:03:21;;;;;;;50.00;34.25;;;153.70;2252.80;;;;;;5076228;28;20124;-86
2023/01/21 10:06:07;;;;;;;52.17;35.38;;;153.80;2252.80;;;;;;5076158;28;20371;-86
2023/01/21 10:08:58;;;;;;;46.75;30.30;;;153.90;2252.80;;;;;;5075819;28;20078;-85
2023/01/21 10:12:02;;;;;;;57.70;40.17;;;153.90;2252.80;;;;;;5066952;28;20401;-84
2023/01/21 10:14:47;;;;;;;42.42;28.70;;;153.80;2252.80;;;;;;5075860;28;20488;-84
2023/01/21 10:17:28;;;;;;;42.17;29.90;;;153.70;2252.80;;;;;;5075875;28;20032;-85
2023/01/21 10:20:00;;;;;;;43.05;29.05;;;153.70;2252.80;;;;;;5075576;28;20362;-84
2023/01/21 10:22:27;;;;;;;41.05;27.20;;;153.60;2252.80;;;;;;5075204;28;20032;-84
2023/01/21 10:25:00;;;;;;;40.42;28.45;;;128.90;2252.80;;;;;;5075499;28;20032;-85
2023/01/21 10:27:28;;;;;;;39.25;27.55;;;128.70;2252.80;;;;;;5075463;28;20032;-87
2023/01/21 10:30:06;;;;;;;42.70;29.95;;;128.60;2252.80;;;;;;5075050;28;20036;-85
2023/01/21 10:32:33;;;;;;;37.80;25.60;;;128.70;2252.80;;;;;;5076659;28;20032;-85
2023/01/21 10:34:59;;;;;;;31.80;21.80;;;128.80;2252.80;;;;;;5075298;28;20025;-78
2023/01/21 10:37:37;;;;;;;30.83;21.85;;;128.70;2252.80;;;;;;5074556;28;20025;-79
2023/01/21 10:40:43;;;;;;;36.83;25.52;;;128.80;2252.80;;;;;;5074819;28;20074;-81
2023/01/21 10:43:37;;;;;;;51.88;32.63;;;128.90;2252.80;;;;;;5065613;28;20049;-79
2023/01/21 10:46:06;;;;;;;47.58;32.55;;;128.90;2252.80;;;;;;5074645;28;20067;-80
2023/01/21 10:48:41;;;;;;;51.33;34.33;;;128.90;2252.80;;;;;;5074522;28;20028;-79
2023/01/21 10:51:25;;;;;;;55.17;36.78;;;153.60;2252.80;;;;;;5075587;28;20111;-80
2023/01/21 10:54:08;;;;;;;48.78;34.03;;;153.60;2252.80;;;;;;5056772;28;20079;-84
2023/01/21 10:56:58;;;;;;;66.50;44.38;;;128.90;2252.80;;;;;;5053861;28;20032;-80
2023/01/21 10:59:29;;;;;;;74.00;52.40;;;153.60;2252.80;;;;;;5054598;28;20100;-82
2023/01/21 11:02:26;;;;;;;82.47;53.97;;;153.70;2252.80;;;;;;5071937;28;20033;-82
2023/01/21 11:04:52;;;;;;;57.38;41.75;;;153.60;2252.80;;;;;;5065703;28;20119;-81
2023/01/21 11:07:20;;;;;;;86.55;53.65;;;153.80;2252.80;;;;;;5076085;28;20107;-87
2023/01/21 11:09:47;;;;;;;137.27;83.50;;;153.70;2252.80;;;;;;5074891;28;20044;-89
2023/01/21 11:12:19;;;;;;;57.22;39.55;;;153.70;2252.80;;;;;;5075250;28;20025;-90
2023/01/21 11:15:17;;;;;;;99.55;63.05;;;153.70;2252.80;;;;;;5075262;28;20025;-84
2023/01/21 11:17:48;;;;;;;78.97;53.10;;;153.70;2252.80;;;;;;5075011;28;20515;-89
2023/01/21 11:20:26;;;;;;;139.50;76.68;;;153.70;2252.80;;;;;;5074984;28;20078;-88
2023/01/21 11:22:52;;;;;;;126.35;70.00;;;153.70;2252.80;;;;;;5075398;28;20408;-89
2023/01/21 11:25:37;;;;;;;93.88;55.72;;;153.70;2252.80;;;;;;5075087;28;20029;-90
2023/01/21 11:28:04;;;;;;;81.95;49.83;;;153.70;2252.80;;;;;;5074908;28;20127;-87
2023/01/21 11:30:34;;;;;;;91.38;51.75;;;153.70;2252.80;;;;;;5075068;28;20460;-86
2023/01/21 11:33:24;;;;;;;91.07;54.08;;;153.70;2252.80;;;;;;5074681;28;20024;-89
2023/01/21 11:35:52;;;;;;;51.88;35.92;;;153.80;2252.80;;;;;;5074394;28;20028;-87
2023/01/21 11:38:28;;;;;;;51.83;35.60;;;153.70;2252.80;;;;;;5074375;28;20584;-88
2023/01/21 11:41:14;;;;;;;59.65;40.28;;;128.90;2252.80;;;;;;5073330;28;20029;-87
2023/01/21 11:43:43;;;;;;;283.70;151.15;;;128.90;2252.80;;;;;;5074436;28;20033;-88
2023/01/21 11:46:27;;;;;;;269.70;141.27;;;153.60;2252.80;;;;;;5074613;28;20107;-89
2023/01/21 11:48:55;;;;;;;117.90;84.40;;;153.70;2252.80;;;;;;5074287;28;20028;-87
2023/01/21 11:51:20;;;;;;;89.45;60.50;;;153.70;2252.80;;;;;;5074323;28;20416;-87
2023/01/21 11:53:46;;;;;;;75.85;51.67;;;153.60;2252.80;;;;;;5074037;28;20024;-88
2023/01/21 11:56:14;;;;;;;97.20;67.50;;;153.60;2252.80;;;;;;5073815;28;20029;-87
2023/01/21 11:58:41;;;;;;;181.10;101.72;;;153.60;2252.80;;;;;;5068646;28;20082;-88
2023/01/21 12:01:17;;;;;;;78.13;52.95;;;153.60;2252.80;;;;;;5074011;28;20379;-86
2023/01/21 12:03:59;;;;;;;93.03;59.45;;;153.70;2252.80;;;;;;5074118;28;20056;-88
2023/01/21 12:06:30;;;;;;;83.75;56.08;;;153.70;2252.80;;;;;;5075230;28;20048;-87
2023/01/21 12:09:02;;;;;;;72.15;48.35;;;153.80;2252.80;;;;;;5070043;28;20477;-87
2023/01/21 12:11:29;;;;;;;53.78;37.25;;;153.70;2252.80;;;;;;5070393;28;20057;-87
2023/01/21 12:14:28;;;;;;;48.13;34.85;;;153.70;2252.80;;;;;;5070304;28;20455;-87
2023/01/21 12:16:59;;;;;;;62.47;44.30;;;153.80;2252.80;;;;;;5070443;28;20029;-88